Terminal Aerodrome Forecast
Issued by NWS North Platte, NE

Home | Current Version | Previous Version | Graphics & Text | Print | Product List | Glossary On
Versions: 1 2 3 4 5 6 7 8 9 10 11 12 13 14 15 16 17
849
FTUS43 KLBF 270520
TAFVTN
TAF
KVTN 270520Z 2706/2806 29006KT P6SM SKC
     FM271000 35002KT P6SM SCT100
      TEMPO 2711/2714 3SM BR SCT007
     FM271600 07008KT P6SM OVC100 PROB30 2800/2806 P6SM -RA OVC050=

USA.gov is the U.S. government's official web portal to all federal, state and local government web resources and services.